Terminal Aerodrome Forecast
Issued by NWS

Home | Current Version | Previous Version | Text Only | Print | Product List | Glossary On
Versions: 1 2 3 4 5 6 7 8 9 10 11 12 13 14 15 16 17 18 19 20 21 22 23 24 25 26 27 28 29 30 31 32 33 34 35 36 37
000
FTAK31 PAFA 071126
TAFABT
TAF
PABT 071126Z 0712/0812 02005KT 3SM FU VCSH SCT035 BKN070 OVC090
     FM071700 22006KT 5SM -RA FU SCT025 OVC050
     FM080400 24004KT 1SM FU VCSH SCT050 BKN100=

USA.gov is the U.S. government's official web portal to all federal, state and local government web resources and services.